sensor_id;sensor_type;location;lat;lon;timestamp;temperature;humidity
15630;DHT22;7914;50.842;0.166;2022-08-19T00:00:20;19.40;99.90
15630;DHT22;7914;50.842;0.166;2022-08-19T00:02:46;19.40;99.90
15630;DHT22;7914;50.842;0.166;2022-08-19T00:05:13;19.40;99.90
15630;DHT22;7914;50.842;0.166;2022-08-19T00:07:41;19.30;99.90
15630;DHT22;7914;50.842;0.166;2022-08-19T00:10:10;19.30;99.90
15630;DHT22;7914;50.842;0.166;2022-08-19T00:12:36;19.30;99.90
15630;DHT22;7914;50.842;0.166;2022-08-19T00:15:05;19.30;99.90
15630;DHT22;7914;50.842;0.166;2022-08-19T00:17:31;19.30;99.90
15630;DHT22;7914;50.842;0.166;2022-08-19T00:19:57;19.30;99.90
15630;DHT22;7914;50.842;0.166;2022-08-19T00:22:23;19.30;99.90
15630;DHT22;7914;50.842;0.166;2022-08-19T00:24:48;19.30;99.90
15630;DHT22;7914;50.842;0.166;2022-08-19T00:27:14;19.30;99.90
15630;DHT22;7914;50.842;0.166;2022-08-19T00:29:40;19.30;99.90
15630;DHT22;7914;50.842;0.166;2022-08-19T00:32:06;19.30;99.90
15630;DHT22;7914;50.842;0.166;2022-08-19T00:36:58;19.40;99.90
15630;DHT22;7914;50.842;0.166;2022-08-19T00:39:25;19.40;99.90
15630;DHT22;7914;50.842;0.166;2022-08-19T00:41:51;19.40;99.90
15630;DHT22;7914;50.842;0.166;2022-08-19T00:44:22;19.40;99.90
15630;DHT22;7914;50.842;0.166;2022-08-19T00:46:50;19.40;99.90
15630;DHT22;7914;50.842;0.166;2022-08-19T00:49:27;19.40;99.90
15630;DHT22;7914;50.842;0.166;2022-08-19T00:52:02;19.40;99.90
15630;DHT22;7914;50.842;0.166;2022-08-19T00:54:29;19.40;99.90
15630;DHT22;7914;50.842;0.166;2022-08-19T00:56:57;19.40;99.90
15630;DHT22;7914;50.842;0.166;2022-08-19T00:59:23;19.40;99.90
15630;DHT22;7914;50.842;0.166;2022-08-19T01:01:49;19.40;99.90
15630;DHT22;7914;50.842;0.166;2022-08-19T01:04:15;19.30;99.90
15630;DHT22;7914;50.842;0.166;2022-08-19T01:06:40;19.30;99.90
15630;DHT22;7914;50.842;0.166;2022-08-19T01:09:06;19.30;99.90
15630;DHT22;7914;50.842;0.166;2022-08-19T01:11:35;19.30;99.90
15630;DHT22;7914;50.842;0.166;2022-08-19T01:14:02;19.30;99.90
15630;DHT22;7914;50.842;0.166;2022-08-19T01:16:30;19.30;99.90
15630;DHT22;7914;50.842;0.166;2022-08-19T01:18:56;19.30;99.90
15630;DHT22;7914;50.842;0.166;2022-08-19T01:21:34;19.30;99.90
15630;DHT22;7914;50.842;0.166;2022-08-19T01:24:02;19.30;99.90
15630;DHT22;7914;50.842;0.166;2022-08-19T01:26:28;19.30;99.90
15630;DHT22;7914;50.842;0.166;2022-08-19T01:28:56;19.30;99.90
15630;DHT22;7914;50.842;0.166;2022-08-19T01:31:26;19.30;99.90
15630;DHT22;7914;50.842;0.166;2022-08-19T01:33:54;19.30;99.90
15630;DHT22;7914;50.842;0.166;2022-08-19T01:36:43;19.30;99.90
15630;DHT22;7914;50.842;0.166;2022-08-19T01:39:13;19.30;99.90
15630;DHT22;7914;50.842;0.166;2022-08-19T01:41:40;19.30;99.90
15630;DHT22;7914;50.842;0.166;2022-08-19T01:44:07;19.30;99.90
15630;DHT22;7914;50.842;0.166;2022-08-19T01:46:34;19.30;99.90
15630;DHT22;7914;50.842;0.166;2022-08-19T01:49:01;19.30;99.90
15630;DHT22;7914;50.842;0.166;2022-08-19T01:51:27;19.30;99.90
15630;DHT22;7914;50.842;0.166;2022-08-19T01:53:54;19.30;99.90
15630;DHT22;7914;50.842;0.166;2022-08-19T01:56:20;19.30;99.90
15630;DHT22;7914;50.842;0.166;2022-08-19T01:59:02;19.30;99.90
15630;DHT22;7914;50.842;0.166;2022-08-19T02:01:29;19.30;99.90
15630;DHT22;7914;50.842;0.166;2022-08-19T02:03:58;19.30;99.90
15630;DHT22;7914;50.842;0.166;2022-08-19T02:06:24;19.30;99.90
15630;DHT22;7914;50.842;0.166;2022-08-19T02:08:50;19.30;99.90
15630;DHT22;7914;50.842;0.166;2022-08-19T02:11:28;19.30;99.90
15630;DHT22;7914;50.842;0.166;2022-08-19T02:13:55;19.30;99.90
15630;DHT22;7914;50.842;0.166;2022-08-19T02:16:21;19.30;99.90
15630;DHT22;7914;50.842;0.166;2022-08-19T02:18:47;19.30;99.90
15630;DHT22;7914;50.842;0.166;2022-08-19T02:21:18;19.30;99.90
15630;DHT22;7914;50.842;0.166;2022-08-19T02:23:45;19.30;99.90
15630;DHT22;7914;50.842;0.166;2022-08-19T02:26:11;19.30;99.90
15630;DHT22;7914;50.842;0.166;2022-08-19T02:28:38;19.30;99.90
15630;DHT22;7914;50.842;0.166;2022-08-19T02:31:12;19.30;99.90
15630;DHT22;7914;50.842;0.166;2022-08-19T02:33:38;19.30;99.90
15630;DHT22;7914;50.842;0.166;2022-08-19T02:36:05;19.30;99.90
15630;DHT22;7914;50.842;0.166;2022-08-19T02:38:31;19.30;99.90
15630;DHT22;7914;50.842;0.166;2022-08-19T02:41:04;19.30;99.90
15630;DHT22;7914;50.842;0.166;2022-08-19T02:43:31;19.20;99.90
15630;DHT22;7914;50.842;0.166;2022-08-19T02:45:57;19.20;99.90
15630;DHT22;7914;50.842;0.166;2022-08-19T02:48:24;19.20;99.90
15630;DHT22;7914;50.842;0.166;2022-08-19T02:50:52;19.20;99.90
15630;DHT22;7914;50.842;0.166;2022-08-19T02:53:25;19.20;99.90
15630;DHT22;7914;50.842;0.166;2022-08-19T02:55:52;19.20;99.90
15630;DHT22;7914;50.842;0.166;2022-08-19T02:58:19;19.20;99.90
15630;DHT22;7914;50.842;0.166;2022-08-19T03:00:49;19.20;99.90
15630;DHT22;7914;50.842;0.166;2022-08-19T03:03:15;19.20;99.90
15630;DHT22;7914;50.842;0.166;2022-08-19T03:05:41;19.20;99.90
15630;DHT22;7914;50.842;0.166;2022-08-19T03:08:08;19.20;99.90
15630;DHT22;7914;50.842;0.166;2022-08-19T03:10:47;19.10;99.90
15630;DHT22;7914;50.842;0.166;2022-08-19T03:13:15;19.10;99.90
15630;DHT22;7914;50.842;0.166;2022-08-19T03:15:47;19.10;99.90
15630;DHT22;7914;50.842;0.166;2022-08-19T03:18:14;19.10;99.90
15630;DHT22;7914;50.842;0.166;2022-08-19T03:20:45;19.10;99.90
15630;DHT22;7914;50.842;0.166;2022-08-19T03:23:11;19.10;99.90
15630;DHT22;7914;50.842;0.166;2022-08-19T03:25:42;19.10;99.90
15630;DHT22;7914;50.842;0.166;2022-08-19T03:28:10;19.10;99.90
15630;DHT22;7914;50.842;0.166;2022-08-19T03:30:38;19.10;99.90
15630;DHT22;7914;50.842;0.166;2022-08-19T03:33:07;19.00;99.90
15630;DHT22;7914;50.842;0.166;2022-08-19T03:35:33;19.00;99.90
15630;DHT22;7914;50.842;0.166;2022-08-19T03:38:05;19.00;99.90
15630;DHT22;7914;50.842;0.166;2022-08-19T03:40:32;19.10;99.90
15630;DHT22;7914;50.842;0.166;2022-08-19T03:43:00;19.10;99.90
15630;DHT22;7914;50.842;0.166;2022-08-19T03:45:26;19.00;99.90
15630;DHT22;7914;50.842;0.166;2022-08-19T03:47:53;19.10;99.90
15630;DHT22;7914;50.842;0.166;2022-08-19T03:50:18;19.10;99.90
15630;DHT22;7914;50.842;0.166;2022-08-19T03:52:49;19.10;99.90
15630;DHT22;7914;50.842;0.166;2022-08-19T03:55:16;19.10;99.90
15630;DHT22;7914;50.842;0.166;2022-08-19T03:57:42;19.10;99.90
15630;DHT22;7914;50.842;0.166;2022-08-19T04:00:08;19.10;99.90
15630;DHT22;7914;50.842;0.166;2022-08-19T04:02:34;19.10;99.90
15630;DHT22;7914;50.842;0.166;2022-08-19T04:05:00;19.10;99.90
15630;DHT22;7914;50.842;0.166;2022-08-19T04:07:26;18.40;99.90
15630;DHT22;7914;50.842;0.166;2022-08-19T04:09:52;19.10;99.90
15630;DHT22;7914;50.842;0.166;2022-08-19T04:12:18;19.10;99.90
15630;DHT22;7914;50.842;0.166;2022-08-19T04:14:46;19.10;99.90
15630;DHT22;7914;50.842;0.166;2022-08-19T04:17:12;19.00;99.90
15630;DHT22;7914;50.842;0.166;2022-08-19T04:19:40;19.00;99.90
15630;DHT22;7914;50.842;0.166;2022-08-19T04:22:07;19.10;99.90
15630;DHT22;7914;50.842;0.166;2022-08-19T04:24:35;19.10;99.90
15630;DHT22;7914;50.842;0.166;2022-08-19T04:27:02;19.00;99.90
15630;DHT22;7914;50.842;0.166;2022-08-19T04:29:28;19.10;99.90
15630;DHT22;7914;50.842;0.166;2022-08-19T04:31:56;19.10;99.90
15630;DHT22;7914;50.842;0.166;2022-08-19T04:34:24;19.10;99.90
15630;DHT22;7914;50.842;0.166;2022-08-19T04:36:52;19.10;99.90
15630;DHT22;7914;50.842;0.166;2022-08-19T04:39:30;19.10;99.90
15630;DHT22;7914;50.842;0.166;2022-08-19T04:42:16;19.10;99.90
15630;DHT22;7914;50.842;0.166;2022-08-19T04:45:00;19.10;99.90
15630;DHT22;7914;50.842;0.166;2022-08-19T04:47:27;19.10;99.90
15630;DHT22;7914;50.842;0.166;2022-08-19T04:49:53;19.10;99.90
15630;DHT22;7914;50.842;0.166;2022-08-19T04:52:19;19.10;99.90
15630;DHT22;7914;50.842;0.166;2022-08-19T04:54:45;19.10;99.90
15630;DHT22;7914;50.842;0.166;2022-08-19T04:57:11;19.20;99.90
15630;DHT22;7914;50.842;0.166;2022-08-19T04:59:38;19.20;99.90
15630;DHT22;7914;50.842;0.166;2022-08-19T05:02:04;19.10;99.90
15630;DHT22;7914;50.842;0.166;2022-08-19T05:04:30;19.20;99.90
15630;DHT22;7914;50.842;0.166;2022-08-19T05:06:57;19.20;99.90
15630;DHT22;7914;50.842;0.166;2022-08-19T05:09:23;19.20;99.90
15630;DHT22;7914;50.842;0.166;2022-08-19T05:11:49;19.20;99.90
15630;DHT22;7914;50.842;0.166;2022-08-19T05:14:16;19.20;99.90
15630;DHT22;7914;50.842;0.166;2022-08-19T05:16:42;19.30;99.90
15630;DHT22;7914;50.842;0.166;2022-08-19T05:19:08;19.30;99.90
15630;DHT22;7914;50.842;0.166;2022-08-19T05:21:53;19.30;99.90
15630;DHT22;7914;50.842;0.166;2022-08-19T05:24:38;19.30;99.90
15630;DHT22;7914;50.842;0.166;2022-08-19T05:27:04;19.30;99.90
15630;DHT22;7914;50.842;0.166;2022-08-19T05:29:31;19.30;99.90
15630;DHT22;7914;50.842;0.166;2022-08-19T05:32:00;19.30;99.90
15630;DHT22;7914;50.842;0.166;2022-08-19T05:34:27;19.30;99.90
15630;DHT22;7914;50.842;0.166;2022-08-19T05:36:57;19.30;99.90
15630;DHT22;7914;50.842;0.166;2022-08-19T05:39:27;19.30;99.90
15630;DHT22;7914;50.842;0.166;2022-08-19T05:41:56;19.30;99.90
15630;DHT22;7914;50.842;0.166;2022-08-19T05:44:24;19.30;99.90
15630;DHT22;7914;50.842;0.166;2022-08-19T05:46:50;19.40;99.90
15630;DHT22;7914;50.842;0.166;2022-08-19T05:49:19;19.40;99.90
15630;DHT22;7914;50.842;0.166;2022-08-19T05:51:45;19.30;99.90
15630;DHT22;7914;50.842;0.166;2022-08-19T05:54:11;19.40;99.90
15630;DHT22;7914;50.842;0.166;2022-08-19T05:56:40;19.40;99.90
15630;DHT22;7914;50.842;0.166;2022-08-19T05:59:07;19.50;99.90
15630;DHT22;7914;50.842;0.166;2022-08-19T06:01:39;19.50;99.90
15630;DHT22;7914;50.842;0.166;2022-08-19T06:04:05;19.50;99.90
15630;DHT22;7914;50.842;0.166;2022-08-19T06:06:32;19.50;99.90
15630;DHT22;7914;50.842;0.166;2022-08-19T06:09:01;19.50;99.90
15630;DHT22;7914;50.842;0.166;2022-08-19T06:11:47;19.50;99.90
15630;DHT22;7914;50.842;0.166;2022-08-19T06:14:16;19.60;99.90
15630;DHT22;7914;50.842;0.166;2022-08-19T06:16:44;19.70;99.90
15630;DHT22;7914;50.842;0.166;2022-08-19T06:19:15;19.70;99.90
15630;DHT22;7914;50.842;0.166;2022-08-19T06:21:43;19.70;99.90
15630;DHT22;7914;50.842;0.166;2022-08-19T06:24:12;19.70;99.90
15630;DHT22;7914;50.842;0.166;2022-08-19T06:26:40;19.70;99.90
15630;DHT22;7914;50.842;0.166;2022-08-19T06:29:07;19.70;99.90
15630;DHT22;7914;50.842;0.166;2022-08-19T06:31:34;19.70;99.90
15630;DHT22;7914;50.842;0.166;2022-08-19T06:34:02;19.70;99.90
15630;DHT22;7914;50.842;0.166;2022-08-19T06:36:37;19.80;99.90
15630;DHT22;7914;50.842;0.166;2022-08-19T06:39:05;19.90;99.90
15630;DHT22;7914;50.842;0.166;2022-08-19T06:41:36;19.90;99.90
15630;DHT22;7914;50.842;0.166;2022-08-19T06:44:02;19.90;99.90
15630;DHT22;7914;50.842;0.166;2022-08-19T06:46:28;20.00;99.90
15630;DHT22;7914;50.842;0.166;2022-08-19T06:48:54;20.10;99.90
15630;DHT22;7914;50.842;0.166;2022-08-19T06:51:21;20.00;99.90
15630;DHT22;7914;50.842;0.166;2022-08-19T06:53:53;20.10;99.90
15630;DHT22;7914;50.842;0.166;2022-08-19T06:56:23;20.10;99.90
15630;DHT22;7914;50.842;0.166;2022-08-19T06:58:50;20.30;99.90
15630;DHT22;7914;50.842;0.166;2022-08-19T07:01:18;20.40;99.90
15630;DHT22;7914;50.842;0.166;2022-08-19T07:03:44;20.50;99.90
15630;DHT22;7914;50.842;0.166;2022-08-19T07:06:15;20.60;99.90
15630;DHT22;7914;50.842;0.166;2022-08-19T07:08:44;20.70;99.90
15630;DHT22;7914;50.842;0.166;2022-08-19T07:11:12;20.70;99.90
15630;DHT22;7914;50.842;0.166;2022-08-19T07:13:38;20.80;99.90
15630;DHT22;7914;50.842;0.166;2022-08-19T07:16:08;20.90;99.90
15630;DHT22;7914;50.842;0.166;2022-08-19T07:18:35;21.00;99.90
15630;DHT22;7914;50.842;0.166;2022-08-19T07:21:11;21.10;99.90
15630;DHT22;7914;50.842;0.166;2022-08-19T07:23:37;21.10;99.90
15630;DHT22;7914;50.842;0.166;2022-08-19T07:28:39;21.40;99.90
15630;DHT22;7914;50.842;0.166;2022-08-19T07:31:06;21.40;99.90
15630;DHT22;7914;50.842;0.166;2022-08-19T07:33:33;21.50;99.90
15630;DHT22;7914;50.842;0.166;2022-08-19T07:36:05;21.70;99.90
15630;DHT22;7914;50.842;0.166;2022-08-19T07:38:33;21.70;99.90
15630;DHT22;7914;50.842;0.166;2022-08-19T07:40:59;21.70;99.90
15630;DHT22;7914;50.842;0.166;2022-08-19T07:43:25;21.70;99.90
15630;DHT22;7914;50.842;0.166;2022-08-19T07:45:54;21.80;99.90
15630;DHT22;7914;50.842;0.166;2022-08-19T07:48:26;21.90;99.90
15630;DHT22;7914;50.842;0.166;2022-08-19T07:50:54;21.90;99.90
15630;DHT22;7914;50.842;0.166;2022-08-19T07:53:24;21.90;99.90
15630;DHT22;7914;50.842;0.166;2022-08-19T07:55:51;21.80;99.90
15630;DHT22;7914;50.842;0.166;2022-08-19T07:58:19;21.90;99.90
15630;DHT22;7914;50.842;0.166;2022-08-19T08:00:47;21.90;99.90
15630;DHT22;7914;50.842;0.166;2022-08-19T08:03:14;21.70;99.90
15630;DHT22;7914;50.842;0.166;2022-08-19T08:05:41;21.50;99.90
15630;DHT22;7914;50.842;0.166;2022-08-19T08:08:26;21.40;99.90
15630;DHT22;7914;50.842;0.166;2022-08-19T08:11:01;21.30;99.90
15630;DHT22;7914;50.842;0.166;2022-08-19T08:13:27;21.20;99.90
15630;DHT22;7914;50.842;0.166;2022-08-19T08:15:53;21.30;99.90
15630;DHT22;7914;50.842;0.166;2022-08-19T08:18:19;21.30;99.90
15630;DHT22;7914;50.842;0.166;2022-08-19T08:20:46;21.50;99.90
15630;DHT22;7914;50.842;0.166;2022-08-19T08:23:12;21.60;99.90
15630;DHT22;7914;50.842;0.166;2022-08-19T08:25:57;21.60;99.90
15630;DHT22;7914;50.842;0.166;2022-08-19T08:28:23;21.70;99.90
15630;DHT22;7914;50.842;0.166;2022-08-19T08:30:49;21.80;99.90
15630;DHT22;7914;50.842;0.166;2022-08-19T08:33:24;21.90;99.90
15630;DHT22;7914;50.842;0.166;2022-08-19T08:35:50;22.00;99.90
15630;DHT22;7914;50.842;0.166;2022-08-19T08:38:15;22.10;99.90
15630;DHT22;7914;50.842;0.166;2022-08-19T08:40:58;22.10;99.90
15630;DHT22;7914;50.842;0.166;2022-08-19T08:43:38;22.10;99.90
15630;DHT22;7914;50.842;0.166;2022-08-19T08:46:14;22.20;99.90
15630;DHT22;7914;50.842;0.166;2022-08-19T08:48:59;22.30;99.90
15630;DHT22;7914;50.842;0.166;2022-08-19T08:51:37;22.50;99.90
15630;DHT22;7914;50.842;0.166;2022-08-19T08:54:10;22.70;99.90
15630;DHT22;7914;50.842;0.166;2022-08-19T08:56:41;22.70;99.90
15630;DHT22;7914;50.842;0.166;2022-08-19T08:59:15;22.80;99.90
15630;DHT22;7914;50.842;0.166;2022-08-19T09:01:42;22.80;99.90
15630;DHT22;7914;50.842;0.166;2022-08-19T09:04:10;22.90;99.90
15630;DHT22;7914;50.842;0.166;2022-08-19T09:06:48;22.80;99.90
15630;DHT22;7914;50.842;0.166;2022-08-19T09:09:45;22.70;99.90
15630;DHT22;7914;50.842;0.166;2022-08-19T09:12:19;22.60;99.90
15630;DHT22;7914;50.842;0.166;2022-08-19T09:14:57;22.30;99.90
15630;DHT22;7914;50.842;0.166;2022-08-19T09:17:27;22.30;99.90
15630;DHT22;7914;50.842;0.166;2022-08-19T09:20:21;22.30;99.90
15630;DHT22;7914;50.842;0.166;2022-08-19T09:22:48;22.20;99.90
15630;DHT22;7914;50.842;0.166;2022-08-19T09:25:20;22.20;99.90
15630;DHT22;7914;50.842;0.166;2022-08-19T09:27:48;22.10;99.90
15630;DHT22;7914;50.842;0.166;2022-08-19T09:30:26;22.10;99.90
15630;DHT22;7914;50.842;0.166;2022-08-19T09:32:53;22.00;99.90
15630;DHT22;7914;50.842;0.166;2022-08-19T09:35:21;22.00;99.90
15630;DHT22;7914;50.842;0.166;2022-08-19T09:37:48;22.50;99.90
15630;DHT22;7914;50.842;0.166;2022-08-19T09:40:15;23.00;99.90
15630;DHT22;7914;50.842;0.166;2022-08-19T09:42:41;23.70;99.90
15630;DHT22;7914;50.842;0.166;2022-08-19T09:45:09;24.30;99.90
15630;DHT22;7914;50.842;0.166;2022-08-19T09:47:35;24.50;99.90
15630;DHT22;7914;50.842;0.166;2022-08-19T09:50:05;24.60;99.90
15630;DHT22;7914;50.842;0.166;2022-08-19T09:52:33;24.40;99.90
15630;DHT22;7914;50.842;0.166;2022-08-19T09:54:59;24.30;99.90
15630;DHT22;7914;50.842;0.166;2022-08-19T09:57:25;24.00;99.90
15630;DHT22;7914;50.842;0.166;2022-08-19T09:59:51;23.80;99.90
15630;DHT22;7914;50.842;0.166;2022-08-19T10:02:16;23.60;99.90
15630;DHT22;7914;50.842;0.166;2022-08-19T10:04:43;23.30;99.90
15630;DHT22;7914;50.842;0.166;2022-08-19T10:07:32;23.30;99.90
15630;DHT22;7914;50.842;0.166;2022-08-19T10:09:57;23.10;99.90
15630;DHT22;7914;50.842;0.166;2022-08-19T10:12:23;23.00;99.90
15630;DHT22;7914;50.842;0.166;2022-08-19T10:14:49;23.00;99.90
15630;DHT22;7914;50.842;0.166;2022-08-19T10:17:16;22.90;99.90
15630;DHT22;7914;50.842;0.166;2022-08-19T10:19:43;22.70;99.90
15630;DHT22;7914;50.842;0.166;2022-08-19T10:22:08;22.70;99.90
15630;DHT22;7914;50.842;0.166;2022-08-19T10:24:40;22.80;99.90
15630;DHT22;7914;50.842;0.166;2022-08-19T10:27:06;22.70;99.90
15630;DHT22;7914;50.842;0.166;2022-08-19T10:29:32;22.80;99.90
15630;DHT22;7914;50.842;0.166;2022-08-19T10:32:05;22.70;99.90
15630;DHT22;7914;50.842;0.166;2022-08-19T10:34:34;23.00;99.90
15630;DHT22;7914;50.842;0.166;2022-08-19T10:37:02;23.20;99.90
15630;DHT22;7914;50.842;0.166;2022-08-19T10:39:30;23.30;99.90
15630;DHT22;7914;50.842;0.166;2022-08-19T10:41:56;23.30;99.90
15630;DHT22;7914;50.842;0.166;2022-08-19T10:44:22;23.50;99.90
15630;DHT22;7914;50.842;0.166;2022-08-19T10:46:49;23.60;99.90
15630;DHT22;7914;50.842;0.166;2022-08-19T10:49:15;23.60;99.90
15630;DHT22;7914;50.842;0.166;2022-08-19T10:51:42;23.60;99.90
15630;DHT22;7914;50.842;0.166;2022-08-19T10:54:27;23.80;99.90
15630;DHT22;7914;50.842;0.166;2022-08-19T10:57:14;23.80;99.90
15630;DHT22;7914;50.842;0.166;2022-08-19T10:59:40;23.90;99.90
15630;DHT22;7914;50.842;0.166;2022-08-19T11:02:09;24.10;99.90
15630;DHT22;7914;50.842;0.166;2022-08-19T11:04:37;24.10;99.90
15630;DHT22;7914;50.842;0.166;2022-08-19T11:07:04;24.10;99.90
15630;DHT22;7914;50.842;0.166;2022-08-19T11:09:31;24.10;99.90
15630;DHT22;7914;50.842;0.166;2022-08-19T11:11:57;24.00;99.90
15630;DHT22;7914;50.842;0.166;2022-08-19T11:14:23;24.00;99.90
15630;DHT22;7914;50.842;0.166;2022-08-19T11:16:51;24.10;99.90
15630;DHT22;7914;50.842;0.166;2022-08-19T11:19:21;24.30;99.90
15630;DHT22;7914;50.842;0.166;2022-08-19T11:21:49;24.20;99.90
15630;DHT22;7914;50.842;0.166;2022-08-19T11:24:21;24.30;99.90
15630;DHT22;7914;50.842;0.166;2022-08-19T11:26:49;24.10;99.90
15630;DHT22;7914;50.842;0.166;2022-08-19T11:29:16;23.80;99.90
15630;DHT22;7914;50.842;0.166;2022-08-19T11:31:44;23.50;99.90
15630;DHT22;7914;50.842;0.166;2022-08-19T11:34:13;23.50;99.90
15630;DHT22;7914;50.842;0.166;2022-08-19T11:36:42;23.60;99.90
15630;DHT22;7914;50.842;0.166;2022-08-19T11:39:10;23.70;99.90
15630;DHT22;7914;50.842;0.166;2022-08-19T11:41:36;23.70;99.90
15630;DHT22;7914;50.842;0.166;2022-08-19T11:44:02;23.60;99.90
15630;DHT22;7914;50.842;0.166;2022-08-19T11:46:28;23.50;99.90
15630;DHT22;7914;50.842;0.166;2022-08-19T11:48:56;23.40;99.90
15630;DHT22;7914;50.842;0.166;2022-08-19T11:51:23;23.10;99.90
15630;DHT22;7914;50.842;0.166;2022-08-19T11:53:53;23.00;99.90
15630;DHT22;7914;50.842;0.166;2022-08-19T11:56:19;22.70;99.90
15630;DHT22;7914;50.842;0.166;2022-08-19T11:58:45;22.60;99.90
15630;DHT22;7914;50.842;0.166;2022-08-19T12:01:13;22.50;99.90
15630;DHT22;7914;50.842;0.166;2022-08-19T12:03:41;22.40;99.90
15630;DHT22;7914;50.842;0.166;2022-08-19T12:06:10;22.50;99.90
15630;DHT22;7914;50.842;0.166;2022-08-19T12:08:39;22.50;99.90
15630;DHT22;7914;50.842;0.166;2022-08-19T12:11:05;22.50;99.90
15630;DHT22;7914;50.842;0.166;2022-08-19T12:13:34;22.80;99.90
15630;DHT22;7914;50.842;0.166;2022-08-19T12:16:00;22.90;99.90
15630;DHT22;7914;50.842;0.166;2022-08-19T12:18:27;23.10;99.90
15630;DHT22;7914;50.842;0.166;2022-08-19T12:20:53;23.20;99.90
15630;DHT22;7914;50.842;0.166;2022-08-19T12:23:22;23.20;99.90
15630;DHT22;7914;50.842;0.166;2022-08-19T12:25:49;23.20;99.90
15630;DHT22;7914;50.842;0.166;2022-08-19T12:28:22;23.00;99.90
15630;DHT22;7914;50.842;0.166;2022-08-19T12:30:49;23.00;99.90
15630;DHT22;7914;50.842;0.166;2022-08-19T12:33:19;23.20;99.90
15630;DHT22;7914;50.842;0.166;2022-08-19T12:35:48;23.10;99.90
15630;DHT22;7914;50.842;0.166;2022-08-19T12:38:14;22.90;99.90
15630;DHT22;7914;50.842;0.166;2022-08-19T12:40:40;22.70;99.90
15630;DHT22;7914;50.842;0.166;2022-08-19T12:43:07;22.30;99.90
15630;DHT22;7914;50.842;0.166;2022-08-19T12:45:33;21.90;99.90
15630;DHT22;7914;50.842;0.166;2022-08-19T12:47:59;21.60;99.90
15630;DHT22;7914;50.842;0.166;2022-08-19T12:50:25;21.50;99.90
15630;DHT22;7914;50.842;0.166;2022-08-19T12:52:51;21.40;99.90
15630;DHT22;7914;50.842;0.166;2022-08-19T12:55:17;21.40;99.90
15630;DHT22;7914;50.842;0.166;2022-08-19T12:57:44;21.50;99.90
15630;DHT22;7914;50.842;0.166;2022-08-19T13:00:14;21.80;99.90
15630;DHT22;7914;50.842;0.166;2022-08-19T13:02:42;22.00;99.90
15630;DHT22;7914;50.842;0.166;2022-08-19T13:05:11;21.90;99.90
15630;DHT22;7914;50.842;0.166;2022-08-19T13:07:38;21.80;99.90
15630;DHT22;7914;50.842;0.166;2022-08-19T13:10:10;21.80;99.90
15630;DHT22;7914;50.842;0.166;2022-08-19T13:12:37;21.70;99.90
15630;DHT22;7914;50.842;0.166;2022-08-19T13:15:04;21.60;99.90
15630;DHT22;7914;50.842;0.166;2022-08-19T13:17:30;21.60;99.90
15630;DHT22;7914;50.842;0.166;2022-08-19T13:19:56;21.80;99.90
15630;DHT22;7914;50.842;0.166;2022-08-19T13:22:22;21.90;99.90
15630;DHT22;7914;50.842;0.166;2022-08-19T13:24:49;22.10;99.90
15630;DHT22;7914;50.842;0.166;2022-08-19T13:27:15;22.30;99.90
15630;DHT22;7914;50.842;0.166;2022-08-19T13:29:41;22.70;99.90
15630;DHT22;7914;50.842;0.166;2022-08-19T13:32:25;23.00;99.90
15630;DHT22;7914;50.842;0.166;2022-08-19T13:35:09;23.20;99.90
15630;DHT22;7914;50.842;0.166;2022-08-19T13:37:35;23.40;99.90
15630;DHT22;7914;50.842;0.166;2022-08-19T13:40:10;23.50;99.30
15630;DHT22;7914;50.842;0.166;2022-08-19T13:42:42;23.60;24.90
15630;DHT22;7914;50.842;0.166;2022-08-19T13:45:09;23.50;23.90
15630;DHT22;7914;50.842;0.166;2022-08-19T13:47:36;23.40;19.40
15630;DHT22;7914;50.842;0.166;2022-08-19T13:50:10;23.40;72.30
15630;DHT22;7914;50.842;0.166;2022-08-19T13:52:37;23.50;93.70
15630;DHT22;7914;50.842;0.166;2022-08-19T13:55:04;23.40;64.80
15630;DHT22;7914;50.842;0.166;2022-08-19T13:57:30;23.50;99.90
15630;DHT22;7914;50.842;0.166;2022-08-19T13:59:57;23.50;99.90
15630;DHT22;7914;50.842;0.166;2022-08-19T14:02:24;23.40;92.40
15630;DHT22;7914;50.842;0.166;2022-08-19T14:04:50;23.30;85.90
15630;DHT22;7914;50.842;0.166;2022-08-19T14:07:16;23.40;99.90
15630;DHT22;7914;50.842;0.166;2022-08-19T14:09:41;23.40;99.90
15630;DHT22;7914;50.842;0.166;2022-08-19T14:12:07;23.40;88.10
15630;DHT22;7914;50.842;0.166;2022-08-19T14:14:38;23.30;61.20
15630;DHT22;7914;50.842;0.166;2022-08-19T14:17:07;23.10;94.70
15630;DHT22;7914;50.842;0.166;2022-08-19T14:19:34;23.10;64.30
15630;DHT22;7914;50.842;0.166;2022-08-19T14:22:00;22.90;99.90
15630;DHT22;7914;50.842;0.166;2022-08-19T14:24:26;23.20;99.90
15630;DHT22;7914;50.842;0.166;2022-08-19T14:26:52;23.20;99.90
15630;DHT22;7914;50.842;0.166;2022-08-19T14:29:18;23.30;99.90
15630;DHT22;7914;50.842;0.166;2022-08-19T14:31:44;23.20;97.60
15630;DHT22;7914;50.842;0.166;2022-08-19T14:34:09;23.10;99.90
15630;DHT22;7914;50.842;0.166;2022-08-19T14:36:36;23.00;52.20
15630;DHT22;7914;50.842;0.166;2022-08-19T14:39:03;23.10;72.70
15630;DHT22;7914;50.842;0.166;2022-08-19T14:41:30;23.10;53.40
15630;DHT22;7914;50.842;0.166;2022-08-19T14:43:56;23.10;52.20
15630;DHT22;7914;50.842;0.166;2022-08-19T14:46:27;23.20;22.90
15630;DHT22;7914;50.842;0.166;2022-08-19T14:48:54;23.30;5.70
15630;DHT22;7914;50.842;0.166;2022-08-19T14:51:21;23.30;41.40
15630;DHT22;7914;50.842;0.166;2022-08-19T14:53:48;23.20;50.30
15630;DHT22;7914;50.842;0.166;2022-08-19T14:56:16;23.20;37.50
15630;DHT22;7914;50.842;0.166;2022-08-19T14:58:44;23.20;5.70
15630;DHT22;7914;50.842;0.166;2022-08-19T15:01:11;23.30;83.10
15630;DHT22;7914;50.842;0.166;2022-08-19T15:03:37;23.60;18.90
15630;DHT22;7914;50.842;0.166;2022-08-19T15:06:07;23.90;1.00
15630;DHT22;7914;50.842;0.166;2022-08-19T15:08:34;24.10;1.00
15630;DHT22;7914;50.842;0.166;2022-08-19T15:11:02;24.10;1.00
15630;DHT22;7914;50.842;0.166;2022-08-19T15:13:29;24.10;1.00
15630;DHT22;7914;50.842;0.166;2022-08-19T15:15:56;24.00;1.00
15630;DHT22;7914;50.842;0.166;2022-08-19T15:18:22;23.70;1.00
15630;DHT22;7914;50.842;0.166;2022-08-19T15:20:48;23.50;1.00
15630;DHT22;7914;50.842;0.166;2022-08-19T15:23:15;23.30;1.00
15630;DHT22;7914;50.842;0.166;2022-08-19T15:25:42;23.20;1.00
15630;DHT22;7914;50.842;0.166;2022-08-19T15:28:09;23.00;1.00
15630;DHT22;7914;50.842;0.166;2022-08-19T15:30:38;23.00;1.00
15630;DHT22;7914;50.842;0.166;2022-08-19T15:33:05;22.90;1.00
15630;DHT22;7914;50.842;0.166;2022-08-19T15:35:32;22.80;1.00
15630;DHT22;7914;50.842;0.166;2022-08-19T15:37:57;22.70;1.00
15630;DHT22;7914;50.842;0.166;2022-08-19T15:40:25;22.70;1.00
15630;DHT22;7914;50.842;0.166;2022-08-19T15:42:51;22.70;1.00
15630;DHT22;7914;50.842;0.166;2022-08-19T15:45:20;22.60;1.00
15630;DHT22;7914;50.842;0.166;2022-08-19T15:47:46;22.60;1.00
15630;DHT22;7914;50.842;0.166;2022-08-19T15:50:18;22.40;1.00
15630;DHT22;7914;50.842;0.166;2022-08-19T15:52:51;22.20;1.00
15630;DHT22;7914;50.842;0.166;2022-08-19T15:55:20;22.20;1.00
15630;DHT22;7914;50.842;0.166;2022-08-19T15:57:46;22.10;1.00
15630;DHT22;7914;50.842;0.166;2022-08-19T16:00:31;22.20;1.00